Fairhope, Alabama
Current Conditions -  °F | °C
As of 11:35 AM on Thursday 30 Oct 2014 (Local Time) from KCQF Reporting Station
Clear Clear  
Wind Chill: 68°   Ceiling: Unl
Heat Index: 68°   Visibility: 10mi
Dew Point: 43°   Wind: 10mph
Humidity: 40%   Direction: 30°NNE
Pressure: 30.09"   Gusts: NA
Location:  30.54°N, 87.89°W
Report Text: KCQF 301635Z AUTO 03009KT 10SM CLR 20/06 A3009 RMK AO2
Loading
Personal Weather Stations






























Interactive Weather Map
Tropical Storm Tracking
New forecast layout! Learn more

10-Day Weather Forecast

Advertisements
Track Severe Weather on mobile